Time;durP1;ratioP1;P1;durP2;ratioP2;P2;SDS_P1;SDS_P2;PMS_P1;PMS_P2;Temp;Humidity;BMP_temperature;BMP_pressure;BME280_temperature;BME280_humidity;BME280_pressure;Samples;Min_cycle;Max_cycle;Signal;HPM_P1;HPM_P2
2023/04/12 00:01:05;;;;;;;8.65;3.92;;;;;;;;;;4967497;28;20125;-80
2023/04/12 00:03:32;;;;;;;10.00;4.03;;;;;;;;;;4969353;28;20057;-80
2023/04/12 00:06:02;;;;;;;6.88;3.83;;;;;;;;;;4966981;28;20046;-80
2023/04/12 00:08:31;;;;;;;9.25;3.83;;;;;;;;;;4964568;28;20043;-80
2023/04/12 00:10:58;;;;;;;11.80;4.15;;;;;;;;;;4953970;28;20096;-81
2023/04/12 00:13:24;;;;;;;13.20;4.72;;;;;;;;;;4970997;28;20043;-81
2023/04/12 00:15:50;;;;;;;11.88;3.60;;;;;;;;;;4968025;28;20600;-80
2023/04/12 00:18:16;;;;;;;7.30;3.72;;;;;;;;;;4949056;28;20125;-81
2023/04/12 00:20:42;;;;;;;9.18;4.03;;;;;;;;;;4952097;28;20133;-80
2023/04/12 00:23:09;;;;;;;8.25;4.00;;;;;;;;;;4969931;28;20031;-80
2023/04/12 00:25:38;;;;;;;9.60;3.90;;;;;;;;;;4951489;28;20482;-82
2023/04/12 00:28:04;;;;;;;8.27;3.55;;;;;;;;;;4961113;28;20046;-80
2023/04/12 00:30:30;;;;;;;9.65;3.42;;;;;;;;;;4961206;28;20042;-81
2023/04/12 00:32:56;;;;;;;7.43;3.33;;;;;;;;;;4944936;28;20137;-81
2023/04/12 00:35:22;;;;;;;9.80;4.18;;;;;;;;;;4955839;28;20051;-80
2023/04/12 00:37:48;;;;;;;11.10;4.07;;;;;;;;;;4951867;28;20051;-81
2023/04/12 00:40:14;;;;;;;9.13;4.57;;;;;;;;;;4971064;28;20049;-81
2023/04/12 00:42:40;;;;;;;7.88;3.50;;;;;;;;;;4971868;28;20503;-81
2023/04/12 00:45:07;;;;;;;9.15;4.53;;;;;;;;;;4950097;28;20053;-81
2023/04/12 00:47:36;;;;;;;7.55;3.67;;;;;;;;;;4954868;28;20073;-80
2023/04/12 00:50:07;;;;;;;11.75;4.30;;;;;;;;;;4969772;28;20047;-81
2023/04/12 00:52:34;;;;;;;9.48;3.90;;;;;;;;;;4969441;28;20049;-81
2023/04/12 00:55:03;;;;;;;6.97;3.60;;;;;;;;;;4966512;28;20519;-81
2023/04/12 00:57:36;;;;;;;7.57;3.53;;;;;;;;;;4971105;28;20042;-81
2023/04/12 01:00:09;;;;;;;8.68;3.90;;;;;;;;;;4961690;28;20082;-81
2023/04/12 01:02:37;;;;;;;7.35;4.40;;;;;;;;;;4968496;28;20066;-81
2023/04/12 01:05:04;;;;;;;10.98;4.72;;;;;;;;;;4952531;28;20061;-81
2023/04/12 01:07:36;;;;;;;7.47;4.07;;;;;;;;;;4953382;28;20054;-81
2023/04/12 01:10:19;;;;;;;12.30;4.70;;;;;;;;;;4971365;28;20051;-81
2023/04/12 01:12:50;;;;;;;9.70;4.22;;;;;;;;;;4946341;28;20062;-81
2023/04/12 01:15:16;;;;;;;9.32;4.53;;;;;;;;;;4967017;28;20491;-81
2023/04/12 01:17:48;;;;;;;7.25;3.90;;;;;;;;;;4969671;28;20388;-81
2023/04/12 01:20:16;;;;;;;6.93;3.85;;;;;;;;;;4958264;28;20043;-81
2023/04/12 01:22:48;;;;;;;7.18;3.70;;;;;;;;;;4958629;28;20044;-81
2023/04/12 01:25:22;;;;;;;7.90;4.07;;;;;;;;;;4947737;28;20058;-81
2023/04/12 01:27:50;;;;;;;10.65;4.03;;;;;;;;;;4946636;28;20050;-80
2023/04/12 01:30:17;;;;;;;10.98;3.63;;;;;;;;;;4965087;28;20050;-81
2023/04/12 01:32:48;;;;;;;8.23;3.70;;;;;;;;;;4950075;28;20070;-81
2023/04/12 01:35:15;;;;;;;8.73;3.63;;;;;;;;;;4975117;28;20447;-81
2023/04/12 01:37:41;;;;;;;12.07;3.95;;;;;;;;;;4972743;28;20046;-81
2023/04/12 01:40:08;;;;;;;8.00;3.72;;;;;;;;;;4975487;28;20090;-81
2023/04/12 01:42:34;;;;;;;9.35;4.10;;;;;;;;;;4957072;28;20051;-81
2023/04/12 01:45:00;;;;;;;8.95;3.95;;;;;;;;;;4972509;28;20097;-82
2023/04/12 01:47:27;;;;;;;12.85;4.30;;;;;;;;;;4958125;28;20082;-81
2023/04/12 01:49:58;;;;;;;6.78;4.07;;;;;;;;;;4974893;28;20039;-81
2023/04/12 01:52:26;;;;;;;9.40;3.60;;;;;;;;;;4957363;28;20048;-81
2023/04/12 01:54:54;;;;;;;7.35;3.47;;;;;;;;;;4972699;28;20054;-81
2023/04/12 01:57:21;;;;;;;5.93;4.15;;;;;;;;;;4956341;28;20046;-81
2023/04/12 01:59:47;;;;;;;11.30;4.00;;;;;;;;;;4974309;28;20511;-81
2023/04/12 02:02:14;;;;;;;8.73;3.90;;;;;;;;;;4945532;28;20065;-82
2023/04/12 02:04:41;;;;;;;7.72;3.72;;;;;;;;;;4968378;28;20039;-81
2023/04/12 02:07:08;;;;;;;7.30;3.97;;;;;;;;;;4969119;28;20038;-81
2023/04/12 02:09:38;;;;;;;7.43;3.85;;;;;;;;;;4964521;28;20113;-82
2023/04/12 02:12:04;;;;;;;7.47;3.42;;;;;;;;;;4966185;28;20050;-82
2023/04/12 02:14:30;;;;;;;7.72;3.40;;;;;;;;;;4964482;28;20121;-81
2023/04/12 02:17:01;;;;;;;8.60;3.90;;;;;;;;;;4947713;28;20146;-83
2023/04/12 02:19:27;;;;;;;5.10;3.63;;;;;;;;;;4950127;28;20081;-82
2023/04/12 02:21:53;;;;;;;6.32;3.47;;;;;;;;;;4953950;28;20046;-81
2023/04/12 02:24:19;;;;;;;5.38;3.15;;;;;;;;;;4949139;28;20054;-82
2023/04/12 02:26:45;;;;;;;4.30;3.53;;;;;;;;;;4966727;28;20043;-83
2023/04/12 02:29:11;;;;;;;6.63;3.75;;;;;;;;;;4946664;28;20047;-83
2023/04/12 02:31:38;;;;;;;6.13;3.58;;;;;;;;;;4945008;28;20070;-82
2023/04/12 02:34:04;;;;;;;8.38;3.60;;;;;;;;;;4965494;28;20417;-82
2023/04/12 02:36:30;;;;;;;4.93;3.13;;;;;;;;;;4965455;28;20073;-82
2023/04/12 02:38:57;;;;;;;6.38;2.90;;;;;;;;;;4966754;28;20053;-83
2023/04/12 02:41:23;;;;;;;5.75;2.65;;;;;;;;;;4972483;28;20494;-83
2023/04/12 02:43:49;;;;;;;4.68;2.65;;;;;;;;;;4970752;28;20781;-82
2023/04/12 02:46:20;;;;;;;3.40;2.80;;;;;;;;;;4965362;28;20102;-82
2023/04/12 02:48:46;;;;;;;3.47;2.65;;;;;;;;;;4951217;28;20112;-82
2023/04/12 02:51:12;;;;;;;5.03;2.60;;;;;;;;;;4956857;28;20150;-82
2023/04/12 02:53:38;;;;;;;5.82;3.00;;;;;;;;;;4971468;28;20406;-82
2023/04/12 02:56:05;;;;;;;5.22;2.83;;;;;;;;;;4955558;28;20054;-82
2023/04/12 02:58:32;;;;;;;4.75;2.95;;;;;;;;;;4953614;29;20051;-82
2023/04/12 03:00:59;;;;;;;4.55;3.10;;;;;;;;;;4965180;28;20112;-83
2023/04/12 03:03:25;;;;;;;4.47;2.78;;;;;;;;;;4948836;28;20047;-83
2023/04/12 03:05:51;;;;;;;6.53;2.97;;;;;;;;;;4954872;28;20508;-82
2023/04/12 03:08:18;;;;;;;6.88;2.97;;;;;;;;;;4954646;28;20050;-82
2023/04/12 03:10:44;;;;;;;4.45;3.05;;;;;;;;;;4973452;28;20630;-82
2023/04/12 03:13:10;;;;;;;5.00;2.95;;;;;;;;;;4946478;28;20545;-84
2023/04/12 03:15:36;;;;;;;6.70;3.28;;;;;;;;;;4964258;28;20105;-83
2023/04/12 03:18:02;;;;;;;4.40;2.95;;;;;;;;;;4948546;28;20525;-82
2023/04/12 03:20:29;;;;;;;6.90;2.80;;;;;;;;;;4962770;28;20138;-85
2023/04/12 03:22:55;;;;;;;7.00;3.10;;;;;;;;;;4953348;28;20047;-85
2023/04/12 03:25:21;;;;;;;4.60;2.67;;;;;;;;;;4946747;28;20043;-83
2023/04/12 03:27:47;;;;;;;7.75;3.38;;;;;;;;;;4947939;28;20078;-82
2023/04/12 03:30:13;;;;;;;5.63;3.08;;;;;;;;;;4964090;28;20039;-83
2023/04/12 03:32:40;;;;;;;5.13;2.95;;;;;;;;;;4964874;28;20043;-83
2023/04/12 03:35:07;;;;;;;4.93;3.08;;;;;;;;;;4965625;28;20094;-83
2023/04/12 03:37:34;;;;;;;5.63;3.08;;;;;;;;;;4967932;28;20491;-83
2023/04/12 03:40:00;;;;;;;5.03;3.03;;;;;;;;;;4947350;28;20490;-82
2023/04/12 03:42:27;;;;;;;8.52;3.35;;;;;;;;;;4946304;28;20082;-82
2023/04/12 03:44:53;;;;;;;8.35;2.78;;;;;;;;;;4965282;28;20039;-82
2023/04/12 03:47:20;;;;;;;4.82;2.83;;;;;;;;;;4964393;28;20046;-82
2023/04/12 03:49:49;;;;;;;4.55;2.40;;;;;;;;;;4946266;28;20108;-82
2023/04/12 03:52:15;;;;;;;3.30;2.50;;;;;;;;;;4947410;28;20546;-82
2023/04/12 03:54:41;;;;;;;4.80;3.05;;;;;;;;;;4948641;28;20051;-82
2023/04/12 03:57:07;;;;;;;4.15;2.92;;;;;;;;;;4946580;28;20042;-82
2023/04/12 03:59:33;;;;;;;5.22;3.30;;;;;;;;;;4948189;28;20145;-82
2023/04/12 04:02:00;;;;;;;5.55;3.15;;;;;;;;;;4943784;28;20510;-82
2023/04/12 04:04:26;;;;;;;5.20;3.00;;;;;;;;;;4941137;28;20078;-82
2023/04/12 04:06:52;;;;;;;5.32;2.95;;;;;;;;;;4944163;28;20126;-82
2023/04/12 04:09:19;;;;;;;3.50;2.63;;;;;;;;;;4950863;28;20411;-82
2023/04/12 04:11:49;;;;;;;4.38;3.03;;;;;;;;;;4948049;28;20398;-83
2023/04/12 04:14:15;;;;;;;5.72;3.08;;;;;;;;;;4964765;28;20129;-83
2023/04/12 04:16:41;;;;;;;11.20;3.05;;;;;;;;;;4962160;28;20068;-82
2023/04/12 04:19:07;;;;;;;3.70;2.60;;;;;;;;;;4964092;28;20477;-83
2023/04/12 04:21:33;;;;;;;6.35;3.20;;;;;;;;;;4962841;28;20038;-82
2023/04/12 04:24:02;;;;;;;6.72;3.22;;;;;;;;;;4950149;28;20113;-82
2023/04/12 04:26:32;;;;;;;9.23;3.40;;;;;;;;;;4962672;28;20035;-82
2023/04/12 04:29:02;;;;;;;4.20;3.13;;;;;;;;;;4943645;28;20125;-82
2023/04/12 04:31:35;;;;;;;4.95;3.05;;;;;;;;;;4944586;28;20332;-82
2023/04/12 04:34:04;;;;;;;5.30;3.47;;;;;;;;;;4962413;28;20051;-83
2023/04/12 04:36:35;;;;;;;5.45;3.38;;;;;;;;;;4944439;28;20054;-83
2023/04/12 04:39:02;;;;;;;7.82;3.08;;;;;;;;;;4945601;28;20050;-83
2023/04/12 04:41:33;;;;;;;3.40;3.10;;;;;;;;;;4970856;28;20499;-82
2023/04/12 04:43:59;;;;;;;6.90;3.25;;;;;;;;;;4971597;28;20055;-82
2023/04/12 04:46:29;;;;;;;2.97;2.47;;;;;;;;;;4948620;28;20043;-82
2023/04/12 04:48:55;;;;;;;5.88;3.10;;;;;;;;;;4943706;28;20411;-83
2023/04/12 04:51:21;;;;;;;5.10;2.88;;;;;;;;;;4954963;28;20046;-82
2023/04/12 04:53:47;;;;;;;6.82;3.20;;;;;;;;;;4954396;28;20057;-83
2023/04/12 04:56:13;;;;;;;5.85;3.40;;;;;;;;;;4970592;28;20483;-82
2023/04/12 04:58:39;;;;;;;4.88;3.28;;;;;;;;;;4950396;29;20095;-83
2023/04/12 05:01:06;;;;;;;6.13;3.60;;;;;;;;;;4943292;28;20057;-83
2023/04/12 05:03:33;;;;;;;5.68;3.20;;;;;;;;;;4959570;28;20156;-83
2023/04/12 05:06:00;;;;;;;5.43;3.05;;;;;;;;;;4963798;28;20069;-83
2023/04/12 05:08:27;;;;;;;5.38;3.80;;;;;;;;;;4949344;28;20412;-83
2023/04/12 05:10:54;;;;;;;4.28;3.25;;;;;;;;;;4943350;28;20055;-83
2023/04/12 05:13:21;;;;;;;4.78;3.60;;;;;;;;;;4960774;28;20046;-82
2023/04/12 05:15:47;;;;;;;8.38;3.78;;;;;;;;;;4945866;28;20113;-83
2023/04/12 05:18:13;;;;;;;4.28;3.10;;;;;;;;;;4945698;28;20055;-82
2023/04/12 05:20:39;;;;;;;4.90;3.20;;;;;;;;;;4947912;28;20479;-82
2023/04/12 05:23:05;;;;;;;7.88;3.25;;;;;;;;;;4963692;28;20039;-83
2023/04/12 05:25:34;;;;;;;4.63;3.08;;;;;;;;;;4964038;28;20066;-83
2023/04/12 05:28:00;;;;;;;6.45;3.45;;;;;;;;;;4962745;28;20141;-82
2023/04/12 05:30:26;;;;;;;5.18;3.40;;;;;;;;;;4961223;28;20042;-83
2023/04/12 05:32:52;;;;;;;3.65;3.00;;;;;;;;;;4961847;28;20406;-83
2023/04/12 05:35:18;;;;;;;7.57;3.30;;;;;;;;;;4946285;28;20483;-82
2023/04/12 05:37:44;;;;;;;4.07;2.70;;;;;;;;;;4943627;28;20047;-83
2023/04/12 05:40:11;;;;;;;4.32;3.25;;;;;;;;;;4963296;28;20061;-83
2023/04/12 05:42:37;;;;;;;5.72;3.70;;;;;;;;;;4949394;28;20051;-83
2023/04/12 05:45:06;;;;;;;6.45;3.50;;;;;;;;;;4948113;28;20765;-82
2023/04/12 05:47:32;;;;;;;4.75;2.92;;;;;;;;;;4945209;28;20043;-82
2023/04/12 05:49:58;;;;;;;5.07;3.30;;;;;;;;;;4961897;28;20141;-83
2023/04/12 05:52:24;;;;;;;3.55;3.08;;;;;;;;;;4942336;28;20136;-83
2023/04/12 05:54:52;;;;;;;4.15;2.92;;;;;;;;;;4961022;28;20190;-83
2023/04/12 05:57:18;;;;;;;3.67;3.28;;;;;;;;;;4964297;28;20454;-84
2023/04/12 05:59:44;;;;;;;4.53;3.35;;;;;;;;;;4962219;28;20054;-83
2023/04/12 06:02:10;;;;;;;4.53;2.95;;;;;;;;;;4967942;28;20652;-84
2023/04/12 06:04:39;;;;;;;5.18;3.22;;;;;;;;;;4943227;28;20077;-82
2023/04/12 06:07:05;;;;;;;6.25;3.03;;;;;;;;;;4946613;28;20046;-83
2023/04/12 06:09:31;;;;;;;5.72;3.45;;;;;;;;;;4963059;28;20201;-82
2023/04/12 06:11:57;;;;;;;5.30;3.28;;;;;;;;;;4963963;28;20692;-83
2023/04/12 06:14:23;;;;;;;4.68;3.03;;;;;;;;;;4948358;28;20034;-83
2023/04/12 06:16:49;;;;;;;2.83;2.58;;;;;;;;;;4948059;28;20039;-82
2023/04/12 06:19:15;;;;;;;4.00;3.00;;;;;;;;;;4967175;28;20492;-83
2023/04/12 06:21:42;;;;;;;3.65;3.28;;;;;;;;;;4951851;28;20093;-82
2023/04/12 06:24:08;;;;;;;2.92;2.63;;;;;;;;;;4949241;28;20046;-82
2023/04/12 06:26:35;;;;;;;5.82;3.40;;;;;;;;;;4947975;28;20097;-82
2023/04/12 06:29:01;;;;;;;3.83;3.40;;;;;;;;;;4950044;28;20969;-81
2023/04/12 06:31:27;;;;;;;6.88;3.47;;;;;;;;;;4964347;28;20047;-82
2023/04/12 06:33:53;;;;;;;6.25;3.60;;;;;;;;;;4949965;28;20053;-82
2023/04/12 06:36:19;;;;;;;3.92;3.53;;;;;;;;;;4950952;28;20050;-82
2023/04/12 06:38:45;;;;;;;4.82;3.65;;;;;;;;;;4946513;28;20193;-82
2023/04/12 06:41:11;;;;;;;4.57;3.20;;;;;;;;;;4958288;28;20046;-87
2023/04/12 06:43:37;;;;;;;4.82;3.42;;;;;;;;;;4975194;28;20523;-81
2023/04/12 06:46:03;;;;;;;4.05;3.60;;;;;;;;;;4969265;28;20039;-81
2023/04/12 06:48:29;;;;;;;4.10;3.30;;;;;;;;;;4957616;28;20039;-81
2023/04/12 06:50:56;;;;;;;4.75;3.33;;;;;;;;;;4973447;28;20038;-82
2023/04/12 06:53:22;;;;;;;4.53;3.22;;;;;;;;;;4970561;28;20050;-82
2023/04/12 06:55:48;;;;;;;4.45;2.95;;;;;;;;;;4951364;28;20043;-81
2023/04/12 06:58:14;;;;;;;4.15;2.85;;;;;;;;;;4980906;28;20047;-82
2023/04/12 07:00:40;;;;;;;3.60;2.95;;;;;;;;;;4988977;28;20060;-82
2023/04/12 07:03:06;;;;;;;6.78;3.00;;;;;;;;;;4981140;28;20038;-82
2023/04/12 07:05:32;;;;;;;4.13;3.25;;;;;;;;;;4974965;28;20108;-81
2023/04/12 07:07:58;;;;;;;4.10;3.70;;;;;;;;;;4974550;28;20101;-82
2023/04/12 07:10:24;;;;;;;3.70;3.10;;;;;;;;;;4969155;28;20097;-81
2023/04/12 07:12:50;;;;;;;4.85;3.38;;;;;;;;;;4955852;28;20074;-81
2023/04/12 07:15:16;;;;;;;4.15;3.20;;;;;;;;;;4975207;28;20047;-81
2023/04/12 07:17:42;;;;;;;7.05;2.70;;;;;;;;;;4973450;28;20054;-82
2023/04/12 07:20:09;;;;;;;5.32;2.72;;;;;;;;;;4973296;28;20089;-81
2023/04/12 07:22:35;;;;;;;3.55;2.80;;;;;;;;;;4973502;28;20030;-81
2023/04/12 07:25:01;;;;;;;5.63;3.42;;;;;;;;;;4977380;28;20491;-82
2023/04/12 07:27:27;;;;;;;6.32;2.95;;;;;;;;;;4955468;28;20078;-81
2023/04/12 07:29:53;;;;;;;9.15;3.65;;;;;;;;;;4967296;28;20075;-81
2023/04/12 07:32:19;;;;;;;6.97;3.55;;;;;;;;;;4974180;28;20055;-83
2023/04/12 07:34:45;;;;;;;8.07;3.50;;;;;;;;;;4964540;28;20350;-80
2023/04/12 07:37:12;;;;;;;8.75;4.13;;;;;;;;;;4968210;28;20058;-81
2023/04/12 07:39:39;;;;;;;8.75;3.90;;;;;;;;;;4971819;28;20046;-80
2023/04/12 07:42:05;;;;;;;10.20;4.03;;;;;;;;;;4954761;28;20418;-80
2023/04/12 07:44:32;;;;;;;10.00;4.00;;;;;;;;;;4954217;28;20061;-80
2023/04/12 07:46:58;;;;;;;16.58;4.47;;;;;;;;;;4967928;28;20038;-79
2023/04/12 07:49:24;;;;;;;18.70;5.75;;;;;;;;;;4971887;28;20047;-79
2023/04/12 07:51:50;;;;;;;12.95;3.97;;;;;;;;;;4956998;28;20048;-81
2023/04/12 07:54:17;;;;;;;16.73;4.72;;;;;;;;;;4973175;28;20522;-82
2023/04/12 07:56:57;;;;;;;20.17;4.38;;;;;;;;;;4950399;28;20492;-80
2023/04/12 07:59:23;;;;;;;14.23;4.40;;;;;;;;;;4968003;28;20058;-82
2023/04/12 08:01:49;;;;;;;15.80;4.75;;;;;;;;;;4954306;28;20181;-80
2023/04/12 08:04:15;;;;;;;21.00;5.03;;;;;;;;;;4947321;28;20050;-80
2023/04/12 08:06:41;;;;;;;20.50;4.72;;;;;;;;;;4955937;28;20046;-80
2023/04/12 08:09:07;;;;;;;20.27;5.03;;;;;;;;;;4951617;28;20038;-80
2023/04/12 08:11:34;;;;;;;22.65;5.15;;;;;;;;;;4948037;28;20513;-80
2023/04/12 08:14:00;;;;;;;20.75;5.40;;;;;;;;;;4951037;28;20051;-80
2023/04/12 08:16:26;;;;;;;19.48;4.85;;;;;;;;;;4956492;28;20059;-80
2023/04/12 08:18:52;;;;;;;20.67;4.18;;;;;;;;;;4953305;29;20138;-80
2023/04/12 08:21:18;;;;;;;18.52;4.18;;;;;;;;;;4952952;28;20043;-80
2023/04/12 08:23:45;;;;;;;16.55;5.07;;;;;;;;;;4954193;28;20142;-80
2023/04/12 08:26:11;;;;;;;15.18;3.90;;;;;;;;;;4963434;28;20046;-81
2023/04/12 08:28:37;;;;;;;15.88;3.83;;;;;;;;;;4964726;28;20497;-81
2023/04/12 08:31:03;;;;;;;17.65;3.90;;;;;;;;;;4944972;28;20047;-81
2023/04/12 08:33:29;;;;;;;18.30;4.05;;;;;;;;;;4954277;28;20133;-80
2023/04/12 08:35:55;;;;;;;18.25;4.03;;;;;;;;;;4963269;28;20049;-80
2023/04/12 08:38:21;;;;;;;14.57;3.58;;;;;;;;;;4966023;28;20063;-80
2023/04/12 08:40:47;;;;;;;15.80;3.55;;;;;;;;;;4947278;28;20160;-81
2023/04/12 08:43:14;;;;;;;14.13;3.08;;;;;;;;;;4964684;28;20065;-80
2023/04/12 08:45:41;;;;;;;15.35;3.85;;;;;;;;;;4947059;28;20042;-81
2023/04/12 08:48:07;;;;;;;11.73;3.60;;;;;;;;;;4947812;28;20235;-81
2023/04/12 08:50:33;;;;;;;9.30;3.10;;;;;;;;;;4970152;28;20046;-80
2023/04/12 08:52:59;;;;;;;15.77;3.70;;;;;;;;;;4947084;28;20051;-81
2023/04/12 08:55:25;;;;;;;13.60;3.75;;;;;;;;;;4964377;28;20177;-81
2023/04/12 08:57:58;;;;;;;14.38;3.42;;;;;;;;;;4947914;28;20035;-81
2023/04/12 09:00:24;;;;;;;12.13;3.45;;;;;;;;;;4948628;28;20471;-81
2023/04/12 09:02:50;;;;;;;11.98;3.35;;;;;;;;;;4972584;28;20046;-80
2023/04/12 09:05:17;;;;;;;17.23;3.80;;;;;;;;;;4955061;28;20499;-81
2023/04/12 09:07:43;;;;;;;12.98;3.97;;;;;;;;;;4978490;28;20051;-81
2023/04/12 09:10:09;;;;;;;14.05;2.80;;;;;;;;;;4973653;28;20062;-81
2023/04/12 09:12:35;;;;;;;7.78;2.53;;;;;;;;;;4972367;28;20054;-80
2023/04/12 09:15:07;;;;;;;11.25;2.95;;;;;;;;;;4954345;28;20047;-81
2023/04/12 09:17:35;;;;;;;12.60;3.17;;;;;;;;;;4955800;28;20509;-81
2023/04/12 09:20:03;;;;;;;8.60;2.58;;;;;;;;;;4951295;28;20119;-81
2023/04/12 09:22:37;;;;;;;6.53;2.70;;;;;;;;;;4959052;28;20550;-81
2023/04/12 09:25:03;;;;;;;11.85;2.90;;;;;;;;;;4978798;28;20046;-81
2023/04/12 09:27:30;;;;;;;8.95;2.75;;;;;;;;;;4978083;28;20050;-80
2023/04/12 09:30:06;;;;;;;10.82;2.97;;;;;;;;;;4961720;28;20047;-81
2023/04/12 09:32:32;;;;;;;10.82;2.92;;;;;;;;;;4971658;28;20043;-81
2023/04/12 09:35:02;;;;;;;13.55;2.92;;;;;;;;;;4971518;28;20384;-81
2023/04/12 09:37:28;;;;;;;6.30;3.05;;;;;;;;;;4959240;28;20054;-82
2023/04/12 09:40:00;;;;;;;7.30;2.70;;;;;;;;;;4953113;28;20061;-81
2023/04/12 09:42:27;;;;;;;10.32;2.88;;;;;;;;;;4970313;28;20828;-82
2023/04/12 09:44:53;;;;;;;8.90;2.47;;;;;;;;;;4968738;28;20054;-82
2023/04/12 09:47:20;;;;;;;8.35;2.67;;;;;;;;;;4949218;28;20054;-81
2023/04/12 09:49:46;;;;;;;9.52;2.80;;;;;;;;;;4968090;28;20038;-81
2023/04/12 09:52:14;;;;;;;12.02;2.70;;;;;;;;;;4969947;28;20059;-81
2023/04/12 09:54:44;;;;;;;7.25;3.10;;;;;;;;;;4956456;28;20137;-82
2023/04/12 09:57:11;;;;;;;12.05;2.70;;;;;;;;;;4966266;28;20491;-82
2023/04/12 09:59:38;;;;;;;12.50;2.92;;;;;;;;;;4949705;28;20052;-82
2023/04/12 10:02:07;;;;;;;10.40;2.88;;;;;;;;;;4967892;28;20078;-82
2023/04/12 10:04:35;;;;;;;8.93;3.00;;;;;;;;;;4950373;28;20059;-82
2023/04/12 10:07:01;;;;;;;14.00;2.97;;;;;;;;;;4947825;28;20394;-82
2023/04/12 10:09:28;;;;;;;13.90;3.38;;;;;;;;;;4964664;28;20049;-82
2023/04/12 10:11:54;;;;;;;11.25;3.35;;;;;;;;;;4965879;28;20061;-82
2023/04/12 10:14:21;;;;;;;14.15;3.25;;;;;;;;;;4965189;28;20047;-83
2023/04/12 10:16:48;;;;;;;9.38;3.00;;;;;;;;;;4967315;28;20399;-80
2023/04/12 10:19:15;;;;;;;11.18;3.03;;;;;;;;;;4968805;28;20133;-82
2023/04/12 10:21:41;;;;;;;9.85;2.95;;;;;;;;;;4967262;28;20101;-82
2023/04/12 10:24:07;;;;;;;8.05;3.15;;;;;;;;;;4950761;28;20077;-82
2023/04/12 10:26:33;;;;;;;8.43;3.05;;;;;;;;;;4949508;28;20446;-82
2023/04/12 10:29:18;;;;;;;10.88;2.97;;;;;;;;;;4948072;28;20763;-82
2023/04/12 10:31:44;;;;;;;11.38;3.08;;;;;;;;;;4947070;28;20069;-82
2023/04/12 10:34:11;;;;;;;10.80;3.00;;;;;;;;;;4954210;28;20502;-81
2023/04/12 10:36:57;;;;;;;17.50;3.40;;;;;;;;;;4948958;28;20042;-81
2023/04/12 10:39:43;;;;;;;13.07;3.20;;;;;;;;;;4969696;28;20046;-82
2023/04/12 10:42:15;;;;;;;14.48;3.58;;;;;;;;;;4963519;28;20106;-81
2023/04/12 10:44:41;;;;;;;10.90;3.25;;;;;;;;;;4954278;28;20060;-81
2023/04/12 10:47:10;;;;;;;11.27;3.53;;;;;;;;;;4950833;28;20771;-81
2023/04/12 10:49:38;;;;;;;14.15;3.42;;;;;;;;;;4956493;28;20059;-81
2023/04/12 10:52:13;;;;;;;13.73;3.75;;;;;;;;;;4949933;28;20043;-82
2023/04/12 10:54:40;;;;;;;14.32;3.00;;;;;;;;;;4950804;28;20388;-81
2023/04/12 10:57:06;;;;;;;11.52;3.35;;;;;;;;;;4971498;28;20051;-81
2023/04/12 10:59:53;;;;;;;14.20;3.47;;;;;;;;;;4953979;28;20082;-81
2023/04/12 11:02:19;;;;;;;17.25;3.28;;;;;;;;;;4953611;28;20043;-81
2023/04/12 11:05:04;;;;;;;10.85;3.20;;;;;;;;;;4971231;28;20046;-81
2023/04/12 11:07:44;;;;;;;13.20;3.25;;;;;;;;;;4945877;28;20055;-81
2023/04/12 11:10:16;;;;;;;11.77;3.40;;;;;;;;;;4973112;28;20558;-81
2023/04/12 11:12:48;;;;;;;12.02;3.15;;;;;;;;;;4952612;28;20194;-81
2023/04/12 11:15:14;;;;;;;17.83;3.30;;;;;;;;;;4964524;28;20097;-81
2023/04/12 11:17:40;;;;;;;12.75;3.33;;;;;;;;;;4968376;28;20046;-81
2023/04/12 11:20:10;;;;;;;7.75;2.47;;;;;;;;;;4950243;29;20051;-81
2023/04/12 11:22:37;;;;;;;9.68;2.83;;;;;;;;;;4956869;28;20089;-81
2023/04/12 11:25:03;;;;;;;13.50;3.30;;;;;;;;;;4966580;28;20046;-80
2023/04/12 11:27:31;;;;;;;17.27;3.53;;;;;;;;;;4947310;28;20047;-82
2023/04/12 11:29:58;;;;;;;11.90;3.10;;;;;;;;;;4946766;28;20407;-82
2023/04/12 11:32:26;;;;;;;7.95;2.72;;;;;;;;;;4947601;28;20039;-81
2023/04/12 11:34:52;;;;;;;12.70;3.50;;;;;;;;;;4966184;28;20574;-81
2023/04/12 11:37:19;;;;;;;13.30;3.33;;;;;;;;;;4948152;28;20043;-82
2023/04/12 11:39:47;;;;;;;8.73;2.78;;;;;;;;;;4965330;28;20062;-82
2023/04/12 11:42:14;;;;;;;10.85;2.95;;;;;;;;;;4966260;28;20109;-82
2023/04/12 11:44:41;;;;;;;12.13;3.65;;;;;;;;;;4967722;28;20057;-82
2023/04/12 11:47:13;;;;;;;11.60;3.10;;;;;;;;;;4963935;28;20034;-82
2023/04/12 11:49:42;;;;;;;9.68;2.58;;;;;;;;;;4953459;28;20495;-81
2023/04/12 11:52:08;;;;;;;13.30;3.45;;;;;;;;;;4962230;28;20499;-82
2023/04/12 11:54:34;;;;;;;11.93;3.50;;;;;;;;;;4946240;28;20406;-82
2023/04/12 11:57:00;;;;;;;13.10;3.38;;;;;;;;;;4966285;28;20039;-83
2023/04/12 11:59:33;;;;;;;8.93;2.60;;;;;;;;;;4965447;28;20157;-83
2023/04/12 12:02:03;;;;;;;10.85;2.90;;;;;;;;;;4962539;28;20050;-83
2023/04/12 12:04:30;;;;;;;7.43;3.25;;;;;;;;;;4960788;28;20043;-84
2023/04/12 12:07:00;;;;;;;7.75;3.00;;;;;;;;;;4970049;28;20495;-83
2023/04/12 12:09:26;;;;;;;10.18;2.97;;;;;;;;;;4950178;28;20098;-83
2023/04/12 12:11:53;;;;;;;9.20;2.72;;;;;;;;;;4965580;28;20051;-84
2023/04/12 12:14:23;;;;;;;13.05;3.20;;;;;;;;;;4957497;28;20058;-85
2023/04/12 12:16:56;;;;;;;10.65;3.05;;;;;;;;;;4955305;28;20399;-84
2023/04/12 12:19:22;;;;;;;;;;;;;;;;;;4951306;28;20376;-85
2023/04/12 12:21:48;;;;;;;9.98;2.90;;;;;;;;;;4954118;28;19922;-84
2023/04/12 12:24:15;;;;;;;14.05;3.60;;;;;;;;;;4952399;28;20045;-83
2023/04/12 12:26:41;;;;;;;12.63;3.22;;;;;;;;;;4969161;28;20046;-84
2023/04/12 12:29:16;;;;;;;12.20;3.22;;;;;;;;;;4948997;28;20101;-85
2023/04/12 12:31:46;;;;;;;10.48;2.75;;;;;;;;;;4967130;28;20046;-85
2023/04/12 12:34:13;;;;;;;8.95;2.80;;;;;;;;;;4966663;28;20595;-85
2023/04/12 12:36:39;;;;;;;7.93;2.85;;;;;;;;;;4964008;28;20066;-85
2023/04/12 12:39:09;;;;;;;8.15;2.80;;;;;;;;;;4964897;28;20057;-85
2023/04/12 12:41:36;;;;;;;7.30;2.70;;;;;;;;;;4954909;28;20477;-83
2023/04/12 12:44:02;;;;;;;11.13;2.50;;;;;;;;;;4956271;28;20054;-84
2023/04/12 12:46:28;;;;;;;4.20;2.33;;;;;;;;;;4973554;28;20035;-84
2023/04/12 12:48:54;;;;;;;8.98;2.50;;;;;;;;;;4974685;28;20046;-84
2023/04/12 12:51:20;;;;;;;10.55;2.63;;;;;;;;;;4957183;28;20043;-84
2023/04/12 12:53:47;;;;;;;8.55;2.50;;;;;;;;;;4949228;28;20400;-84
2023/04/12 12:56:14;;;;;;;8.38;3.13;;;;;;;;;;4970482;28;20570;-85
2023/04/12 12:58:40;;;;;;;6.60;2.42;;;;;;;;;;4972888;28;20498;-85
2023/04/12 13:01:07;;;;;;;8.57;2.47;;;;;;;;;;4965819;28;20118;-85
2023/04/12 13:03:33;;;;;;;7.28;2.85;;;;;;;;;;4973946;28;20137;-85
2023/04/12 13:05:59;;;;;;;7.90;2.95;;;;;;;;;;4965082;28;20047;-86
2023/04/12 13:08:26;;;;;;;8.70;2.83;;;;;;;;;;4954248;28;20043;-86
2023/04/12 13:10:52;;;;;;;9.57;2.67;;;;;;;;;;4956820;28;20050;-84
2023/04/12 13:13:18;;;;;;;10.05;3.28;;;;;;;;;;4950504;28;20506;-85
2023/04/12 13:15:46;;;;;;;11.40;3.42;;;;;;;;;;4965048;28;20392;-85
2023/04/12 13:18:15;;;;;;;8.07;3.20;;;;;;;;;;4948217;28;20047;-86
2023/04/12 13:20:41;;;;;;;8.75;3.17;;;;;;;;;;4967722;28;20070;-85
2023/04/12 13:23:08;;;;;;;11.80;2.72;;;;;;;;;;4949218;28;20054;-85
2023/04/12 13:25:34;;;;;;;8.75;2.80;;;;;;;;;;4956789;28;20043;-87
2023/04/12 13:28:00;;;;;;;7.50;2.95;;;;;;;;;;4956947;28;20089;-85
2023/04/12 13:30:26;;;;;;;11.48;3.20;;;;;;;;;;4959769;28;21076;-85
2023/04/12 13:32:53;;;;;;;8.25;3.03;;;;;;;;;;4970828;28;20046;-84
2023/04/12 13:35:20;;;;;;;10.00;3.50;;;;;;;;;;4950329;28;20035;-85
2023/04/12 13:37:46;;;;;;;9.20;4.10;;;;;;;;;;4971015;28;20061;-84
2023/04/12 13:40:13;;;;;;;10.75;3.03;;;;;;;;;;4971772;28;20050;-86
2023/04/12 13:42:39;;;;;;;12.10;2.90;;;;;;;;;;4953503;28;20073;-84
2023/04/12 13:45:06;;;;;;;11.45;3.88;;;;;;;;;;4972560;28;20155;-85
2023/04/12 13:47:32;;;;;;;9.60;3.10;;;;;;;;;;4970725;28;20050;-84
2023/04/12 13:50:00;;;;;;;11.43;3.55;;;;;;;;;;4975532;28;20035;-86
2023/04/12 13:52:26;;;;;;;13.35;3.55;;;;;;;;;;4971143;28;20501;-85
2023/04/12 13:54:52;;;;;;;9.98;3.10;;;;;;;;;;4970053;28;20125;-85
2023/04/12 13:57:18;;;;;;;11.55;3.20;;;;;;;;;;4954949;28;20055;-86
2023/04/12 13:59:44;;;;;;;13.25;3.88;;;;;;;;;;4957339;28;20097;-84
2023/04/12 14:02:10;;;;;;;13.10;3.40;;;;;;;;;;4958397;28;20043;-84
2023/04/12 14:04:36;;;;;;;10.05;3.30;;;;;;;;;;4961449;28;20070;-84
2023/04/12 14:07:02;;;;;;;8.88;3.17;;;;;;;;;;4978374;28;20499;-84
2023/04/12 14:09:30;;;;;;;11.23;3.40;;;;;;;;;;4962408;28;20057;-84
2023/04/12 14:11:57;;;;;;;10.77;3.10;;;;;;;;;;4979635;28;20450;-84
2023/04/12 14:14:24;;;;;;;10.70;3.28;;;;;;;;;;4952987;28;20047;-84
2023/04/12 14:16:55;;;;;;;14.68;3.55;;;;;;;;;;4990097;28;20586;-84
2023/04/12 14:19:22;;;;;;;11.63;3.42;;;;;;;;;;4979256;28;20158;-85
2023/04/12 14:21:48;;;;;;;11.38;3.10;;;;;;;;;;4974193;28;20387;-85
2023/04/12 14:24:17;;;;;;;13.20;3.17;;;;;;;;;;4979221;28;20050;-85
2023/04/12 14:26:44;;;;;;;4.95;2.72;;;;;;;;;;4979977;28;20050;-85
2023/04/12 14:29:10;;;;;;;13.02;3.50;;;;;;;;;;4958831;28;20057;-86
2023/04/12 14:31:37;;;;;;;12.15;3.22;;;;;;;;;;4962855;28;20112;-85
2023/04/12 14:34:03;;;;;;;10.52;3.00;;;;;;;;;;4975682;28;20043;-85
2023/04/12 14:36:30;;;;;;;9.98;3.13;;;;;;;;;;4976996;28;20399;-85
2023/04/12 14:38:56;;;;;;;16.15;3.30;;;;;;;;;;4958896;28;20403;-86